Time;durP1;ratioP1;P1;durP2;ratioP2;P2;SDS_P1;SDS_P2;PMS_P1;PMS_P2;Temp;Humidity;BMP_temperature;BMP_pressure;BME280_temperature;BME280_humidity;BME280_pressure;Samples;Min_cycle;Max_cycle;Signal;HPM_P1;HPM_P2
2023/07/19 00:01:23;;;;;;;;;;;;;;;-144.99;100.00;52280.97;5047085;28;19924;-68
2023/07/19 00:03:49;;;;;;;;;;;;;;;-144.99;100.00;52301.34;5050484;28;19931;-67
2023/07/19 00:06:16;;;;;;;;;;;;;;;-144.99;100.00;52272.81;5057276;28;19936;-66
2023/07/19 00:08:43;;;;;;;;;;;;;;;-144.99;100.00;52289.13;5067811;28;19925;-68
2023/07/19 00:11:09;;;;;;;;;;;;;;;-144.99;100.00;52309.50;5071860;28;19925;-68
2023/07/19 00:13:36;;;;;;;;;;;;;;;-144.99;100.00;52301.34;5073916;28;19913;-67
2023/07/19 00:16:04;;;;;;;;;;;;;;;-144.99;100.00;52303.38;5067895;28;19924;-68
2023/07/19 00:18:31;;;;;;;;;;;;;;;-144.99;100.00;52305.41;5057473;28;19987;-68
2023/07/19 00:20:58;;;;;;;;;;;;;;;-144.99;100.00;52293.19;5064084;28;19925;-68
2023/07/19 00:23:24;;;;;;;;;;;;;;;-144.99;100.00;52309.50;5060361;28;20313;-68
2023/07/19 00:25:51;;;;;;;;;;;;;;;-144.99;100.00;52297.25;5057473;28;19931;-67
2023/07/19 00:28:17;;;;;;;;;;;;;;;-144.99;100.00;52289.13;5058231;28;19936;-67
2023/07/19 00:30:44;;;;;;;;;;;;;;;-144.99;100.00;52287.06;5063999;28;19936;-67
2023/07/19 00:33:12;;;;;;;;;;;;;;;-144.99;100.00;52338.03;5066433;28;19928;-67
2023/07/19 00:35:41;;;;;;;;;;;;;;;-144.99;100.00;52248.34;5061093;28;19948;-69
2023/07/19 00:38:07;;;;;;;;;;;;;;;-144.99;100.00;52311.53;5069967;28;19917;-69
2023/07/19 00:40:34;;;;;;;;;;;;;;;-144.99;100.00;52303.38;5063476;28;19929;-69
2023/07/19 00:43:01;;;;;;;;;;;;;;;-144.99;100.00;52278.91;5065329;28;19935;-65
2023/07/19 00:45:27;;;;;;;;;;;;;;;-144.99;100.00;52293.19;5059422;28;19937;-66
2023/07/19 00:47:54;;;;;;;;;;;;;;;-144.99;100.00;52313.56;5047484;28;19932;-66
2023/07/19 00:50:23;;;;;;;;;;;;;;;-144.99;100.00;52297.25;5049731;28;20003;-66
2023/07/19 00:52:51;;;;;;;;;;;;;;;-144.99;100.00;52297.25;5063134;28;19939;-66
2023/07/19 00:55:18;;;;;;;;;;;;;;;-144.99;100.00;52264.66;5057725;28;19939;-66
2023/07/19 00:57:45;;;;;;;;;;;;;;;-144.99;100.00;52315.59;5063794;28;19933;-66
2023/07/19 01:00:12;;;;;;;;;;;;;;;-144.99;100.00;52285.03;5064798;28;19964;-66
2023/07/19 01:02:39;;;;;;;;;;;;;;;-144.99;100.00;52289.13;5052016;28;20292;-66
2023/07/19 01:05:06;;;;;;;;;;;;;;;-144.99;100.00;52325.81;5046090;28;19928;-66
2023/07/19 01:07:34;;;;;;;;;;;;;;;-144.99;100.00;52301.34;5042457;28;19955;-67
2023/07/19 01:10:01;;;;;;;;;;;;;;;-144.99;100.00;52313.56;5039213;28;19925;-66
2023/07/19 01:12:28;;;;;;;;;;;;;;;-144.99;100.00;52287.06;5041476;28;19936;-66
2023/07/19 01:14:54;;;;;;;;;;;;;;;-144.99;100.00;52276.88;5041727;28;19933;-66
2023/07/19 01:17:21;;;;;;;;;;;;;;;-144.99;100.00;52313.56;5042208;28;19925;-74
2023/07/19 01:19:47;;;;;;;;;;;;;;;-144.99;100.00;52313.56;5037147;28;20463;-76
2023/07/19 01:22:14;;;;;;;;;;;;;;;-144.99;100.00;52293.19;5050090;28;20020;-75
2023/07/19 01:24:42;;;;;;;;;;;;;;;-144.99;100.00;52293.19;5045324;28;20398;-75
2023/07/19 01:27:09;;;;;;;;;;;;;;;-144.99;100.00;52301.34;5049611;28;19932;-78
2023/07/19 01:29:36;;;;;;;;;;;;;;;-144.99;100.00;52285.03;5048664;28;19929;-74
2023/07/19 01:32:02;;;;;;;;;;;;;;;-144.99;100.00;52297.25;5039843;28;19928;-76
2023/07/19 01:34:29;;;;;;;;;;;;;;;-144.99;100.00;52317.66;5049218;28;20428;-74
2023/07/19 01:36:56;;;;;;;;;;;;;;;-144.99;100.00;52321.72;5032917;28;19933;-75
2023/07/19 01:39:22;;;;;;;;;;;;;;;-144.99;100.00;52293.19;5045442;28;19931;-75
2023/07/19 01:41:50;;;;;;;;;;;;;;;-144.99;100.00;52293.19;5031199;28;19947;-74
2023/07/19 01:44:17;;;;;;;;;;;;;;;-144.99;100.00;52295.22;5040570;28;19931;-74
2023/07/19 01:46:44;;;;;;;;;;;;;;;-144.99;100.00;52305.41;5049411;28;20027;-74
2023/07/19 01:49:11;;;;;;;;;;;;;;;-144.99;100.00;52305.41;5043818;28;19939;-75
2023/07/19 01:51:37;;;;;;;;;;;;;;;-144.99;100.00;52289.13;5039739;28;20084;-75
2023/07/19 01:54:04;;;;;;;;;;;;;;;-144.99;100.00;52309.50;5046073;28;19932;-68
2023/07/19 01:56:30;;;;;;;;;;;;;;;-144.99;100.00;52293.19;5048059;28;19925;-68
2023/07/19 01:58:58;;;;;;;;;;;;;;;-144.99;100.00;52297.25;5039716;28;19929;-68
2023/07/19 02:01:25;;;;;;;;;;;;;;;-144.99;100.00;52309.50;5044436;28;19929;-70
2023/07/19 02:03:52;;;;;;;;;;;;;;;-144.99;100.00;52301.34;5042675;28;19963;-70
2023/07/19 02:06:18;;;;;;;;;;;;;;;-144.99;100.00;52293.19;5045521;28;20389;-70
2023/07/19 02:08:45;;;;;;;;;;;;;;;-144.99;100.00;52293.19;5045841;28;19928;-70
2023/07/19 02:11:11;;;;;;;;;;;;;;;-144.99;100.00;52268.72;5047863;28;19994;-66
2023/07/19 02:13:38;;;;;;;;;;;;;;;-144.99;100.00;52313.56;5047585;28;19951;-66
2023/07/19 02:16:06;;;;;;;;;;;;;;;-144.99;100.00;52260.56;5040643;28;19925;-66
2023/07/19 02:18:33;;;;;;;;;;;;;;;-144.99;100.00;52285.03;5045758;28;19931;-68
2023/07/19 02:20:59;;;;;;;;;;;;;;;-144.99;100.00;52301.34;5047761;28;19925;-68
2023/07/19 02:23:26;;;;;;;;;;;;;;;-144.99;100.00;52301.34;5050443;28;20171;-72
2023/07/19 02:25:53;;;;;;;;;;;;;;;-144.99;100.00;52301.34;5047876;28;19926;-72
2023/07/19 02:28:20;;;;;;;;;;;;;;;-144.99;100.00;52293.19;5045596;28;19924;-71
2023/07/19 02:30:47;;;;;;;;;;;;;;;-144.99;100.00;52280.97;5050135;28;19929;-72
2023/07/19 02:33:15;;;;;;;;;;;;;;;-144.99;100.00;52285.03;5042807;28;20275;-73
2023/07/19 02:35:42;;;;;;;;;;;;;;;-144.99;100.00;52313.56;5045728;28;19936;-74
2023/07/19 02:38:09;;;;;;;;;;;;;;;-144.99;100.00;52323.75;5051424;28;19980;-73
2023/07/19 02:40:35;;;;;;;;;;;;;;;-144.99;100.00;52350.25;5052956;28;19932;-71
2023/07/19 02:43:02;;;;;;;;;;;;;;;-144.99;100.00;52325.81;5045493;28;20298;-71
2023/07/19 02:45:29;;;;;;;;;;;;;;;-144.99;100.00;52315.59;5044777;28;20302;-72
2023/07/19 02:47:55;;;;;;;;;;;;;;;-144.99;100.00;52309.50;5054374;28;19925;-72
2023/07/19 02:50:23;;;;;;;;;;;;;;;-144.99;100.00;52350.25;5046283;28;19932;-69
2023/07/19 02:52:50;;;;;;;;;;;;;;;-144.99;100.00;52331.91;5054918;28;19932;-69
2023/07/19 02:55:17;;;;;;;;;;;;;;;-144.99;100.00;52313.56;5048774;28;19924;-69
2023/07/19 02:57:43;;;;;;;;;;;;;;;-144.99;100.00;52333.94;5052583;28;19924;-69
2023/07/19 03:00:10;;;;;;;;;;;;;;;-144.99;100.00;52313.56;5053946;28;19933;-69
2023/07/19 03:02:37;;;;;;;;;;;;;;;-144.99;100.00;52323.75;5042709;28;20394;-69
2023/07/19 03:05:04;;;;;;;;;;;;;;;-144.99;100.00;52313.56;5048713;28;19951;-69
2023/07/19 03:07:32;;;;;;;;;;;;;;;-144.99;100.00;52338.03;5050784;28;20344;-69
2023/07/19 03:09:59;;;;;;;;;;;;;;;-144.99;100.00;52301.34;5046939;28;20254;-67
2023/07/19 03:12:26;;;;;;;;;;;;;;;-144.99;100.00;52325.81;5050488;28;19925;-67
2023/07/19 03:14:52;;;;;;;;;;;;;;;-144.99;100.00;52338.03;5053346;28;19978;-67
2023/07/19 03:17:19;;;;;;;;;;;;;;;-144.99;100.00;52297.25;5053503;28;20205;-67
2023/07/19 03:19:47;;;;;;;;;;;;;;;-144.99;100.00;52342.09;5052209;28;20405;-67
2023/07/19 03:22:13;;;;;;;;;;;;;;;-144.99;100.00;52333.94;5044594;28;19928;-67
2023/07/19 03:24:41;;;;;;;;;;;;;;;-144.99;100.00;52287.06;5050887;28;19982;-67
2023/07/19 03:27:08;;;;;;;;;;;;;;;-144.99;100.00;52313.56;5051040;28;19929;-66
2023/07/19 03:29:36;;;;;;;;;;;;;;;-144.99;100.00;52276.88;5050293;28;19925;-67
2023/07/19 03:32:03;;;;;;;;;;;;;;;-144.99;100.00;52311.53;5045515;28;19961;-67
2023/07/19 03:34:29;;;;;;;;;;;;;;;-144.99;100.00;52305.41;5051040;28;19936;-67
2023/07/19 03:36:56;;;;;;;;;;;;;;;-144.99;100.00;52297.25;5045514;28;19925;-67
2023/07/19 03:39:22;;;;;;;;;;;;;;;-144.99;100.00;52317.66;5047756;28;19929;-66
2023/07/19 03:41:50;;;;;;;;;;;;;;;-144.99;100.00;52350.25;5043053;28;19925;-67
2023/07/19 03:44:18;;;;;;;;;;;;;;;-144.99;100.00;52301.34;5040973;28;19939;-67
2023/07/19 03:46:44;;;;;;;;;;;;;;;-144.99;100.00;52299.31;5050592;28;20313;-62
2023/07/19 03:49:11;;;;;;;;;;;;;;;-144.99;100.00;52301.34;5045793;28;20441;-63
2023/07/19 03:51:38;;;;;;;;;;;;;;;-144.99;100.00;52336.00;5049277;28;19935;-65
2023/07/19 03:54:05;;;;;;;;;;;;;;;-144.99;100.00;52321.72;5045013;28;19950;-64
2023/07/19 03:56:31;;;;;;;;;;;;;;;-144.99;100.00;52309.50;5043422;28;19936;-65
2023/07/19 03:58:59;;;;;;;;;;;;;;;-144.99;100.00;52333.94;5047797;28;19925;-64
2023/07/19 04:01:26;;;;;;;;;;;;;;;-144.99;100.00;52293.19;5046395;28;19943;-65
2023/07/19 04:03:53;;;;;;;;;;;;;;;-144.99;100.00;52344.16;5047169;28;19925;-66
2023/07/19 04:06:19;;;;;;;;;;;;;;;-144.99;100.00;52313.56;5045245;28;19925;-63
2023/07/19 04:08:46;;;;;;;;;;;;;;;-144.99;100.00;52317.66;5045336;28;19941;-63
2023/07/19 04:11:12;;;;;;;;;;;;;;;-144.99;100.00;52325.81;5040376;28;19936;-63
2023/07/19 04:13:39;;;;;;;;;;;;;;;-144.99;100.00;52303.38;5047962;28;19954;-64
2023/07/19 04:16:07;;;;;;;;;;;;;;;-144.99;100.00;52280.97;5044904;28;20271;-66
2023/07/19 04:18:34;;;;;;;;;;;;;;;-144.99;100.00;52354.34;5046647;28;20250;-66
2023/07/19 04:21:02;;;;;;;;;;;;;;;-144.99;100.00;52329.88;5048530;28;19924;-66
2023/07/19 04:23:28;;;;;;;;;;;;;;;-144.99;100.00;52329.88;5050009;28;19925;-65
2023/07/19 04:25:55;;;;;;;;;;;;;;;-144.99;100.00;52313.56;5049560;28;19925;-63
2023/07/19 04:28:22;;;;;;;;;;;;;;;-144.99;100.00;52329.88;5044962;28;19925;-68
2023/07/19 04:30:48;;;;;;;;;;;;;;;-144.99;100.00;52338.03;5047190;28;19933;-68
2023/07/19 04:33:16;;;;;;;;;;;;;;;-144.99;100.00;52317.66;5043211;28;20008;-68
2023/07/19 04:35:43;;;;;;;;;;;;;;;-144.99;100.00;52329.88;5049015;28;19928;-68
2023/07/19 04:38:10;;;;;;;;;;;;;;;-144.99;100.00;52356.38;5043209;28;19951;-67
2023/07/19 04:40:36;;;;;;;;;;;;;;;-144.99;100.00;52317.66;5048871;28;20295;-67
2023/07/19 04:43:03;;;;;;;;;;;;;;;-144.99;100.00;52354.34;5037087;28;19929;-66
2023/07/19 04:45:30;;;;;;;;;;;;;;;-144.99;100.00;52280.97;5042147;28;20365;-67
2023/07/19 04:47:56;;;;;;;;;;;;;;;-144.99;100.00;52350.25;5041338;28;20007;-67
2023/07/19 04:50:25;;;;;;;;;;;;;;;-144.99;100.00;52297.25;5041004;28;20002;-68
2023/07/19 04:52:51;;;;;;;;;;;;;;;-144.99;100.00;52350.25;5048883;28;19931;-68
2023/07/19 04:55:18;;;;;;;;;;;;;;;-144.99;100.00;52358.41;5049212;28;19928;-68
2023/07/19 04:57:45;;;;;;;;;;;;;;;-144.99;100.00;52317.66;5047548;28;19929;-67
2023/07/19 05:00:14;;;;;;;;;;;;;;;-144.99;100.00;52333.94;5044595;28;19929;-64
2023/07/19 05:02:41;;;;;;;;;;;;;;;-144.99;100.00;52346.19;5043286;28;20020;-67
2023/07/19 05:05:08;;;;;;;;;;;;;;;-144.99;100.00;52336.00;5048168;28;20394;-66
2023/07/19 05:07:36;;;;;;;;;;;;;;;-144.99;100.00;52325.81;5038569;28;20287;-66
2023/07/19 05:10:03;;;;;;;;;;;;;;;-144.99;100.00;52317.66;5043071;28;19937;-66
2023/07/19 05:12:30;;;;;;;;;;;;;;;-144.99;100.00;52305.41;5036813;28;19975;-66
2023/07/19 05:14:57;;;;;;;;;;;;;;;-144.99;100.00;52305.41;5041633;28;19932;-68
2023/07/19 05:17:29;;;;;;;;;;;;;;;-144.99;100.00;52309.50;4547549;28;10000747;-69
2023/07/19 05:19:56;;;;;;;;;;;;;;;-144.99;100.00;52309.50;5036910;28;19935;-68
2023/07/19 05:22:23;;;;;;;;;;;;;;;-144.99;100.00;52289.13;5037395;28;19925;-67
2023/07/19 05:24:51;;;;;;;;;;;;;;;-144.99;100.00;52309.50;5034764;28;19932;-67
2023/07/19 05:27:17;;;;;;;;;;;;;;;-144.99;100.00;52293.19;5041763;28;19931;-67
2023/07/19 05:29:44;;;;;;;;;;;;;;;-144.99;100.00;52287.06;5044822;28;20369;-67
2023/07/19 05:32:11;;;;;;;;;;;;;;;-144.99;100.00;52321.72;5044331;28;20062;-68
2023/07/19 05:34:37;;;;;;;;;;;;;;;-144.99;100.00;52305.41;5036761;28;20750;-67
2023/07/19 05:37:06;;;;;;;;;;;;;;;-144.99;100.00;52319.69;5037126;28;19933;-67
2023/07/19 05:39:32;;;;;;;;;;;;;;;-144.99;100.00;52329.88;5039923;28;19929;-67
2023/07/19 05:42:01;;;;;;;;;;;;;;;-144.99;100.00;52309.50;5042624;28;19929;-67
2023/07/19 05:44:27;;;;;;;;;;;;;;;-144.99;100.00;52333.94;5039118;28;20013;-67
2023/07/19 05:46:54;;;;;;;;;;;;;;;-144.99;100.00;52333.94;5043243;28;19936;-67
2023/07/19 05:49:21;;;;;;;;;;;;;;;-144.99;100.00;52280.97;5037023;28;19925;-67
2023/07/19 05:51:47;;;;;;;;;;;;;;;-144.99;100.00;52329.88;5040402;28;19928;-67
2023/07/19 05:54:15;;;;;;;;;;;;;;;-144.99;100.00;52317.66;5043775;28;19936;-66
2023/07/19 05:56:42;;;;;;;;;;;;;;;-144.99;100.00;52301.34;5039571;28;19950;-67
2023/07/19 05:59:11;;;;;;;;;;;;;;;-144.99;100.00;52338.03;5034779;28;19929;-68
2023/07/19 06:01:37;;;;;;;;;;;;;;;-144.99;100.00;52301.34;5044771;28;19933;-67
2023/07/19 06:04:05;;;;;;;;;;;;;;;-144.99;100.00;52358.41;5035210;28;20415;-67
2023/07/19 06:06:32;;;;;;;;;;;;;;;-144.99;100.00;52329.88;5040799;28;20004;-67
2023/07/19 06:08:59;;;;;;;;;;;;;;;-144.99;100.00;52333.94;5041728;28;19929;-67
2023/07/19 06:11:25;;;;;;;;;;;;;;;-144.99;100.00;52297.25;5037742;28;19928;-67
2023/07/19 06:13:52;;;;;;;;;;;;;;;-144.99;100.00;52338.03;5044292;28;19940;-68
2023/07/19 06:16:20;;;;;;;;;;;;;;;-144.99;100.00;52327.84;5042761;28;20687;-68
2023/07/19 06:18:47;;;;;;;;;;;;;;;-144.99;100.00;52340.06;5043899;28;20389;-69
2023/07/19 06:21:13;;;;;;;;;;;;;;;-144.99;100.00;52325.81;5042390;28;19936;-68
2023/07/19 06:23:40;;;;;;;;;;;;;;;-144.99;100.00;52331.91;5045211;28;20301;-69
2023/07/19 06:26:06;;;;;;;;;;;;;;;-144.99;100.00;52305.41;5038836;28;19928;-68
2023/07/19 06:28:33;;;;;;;;;;;;;;;-144.99;100.00;52333.94;5039798;28;20301;-69
2023/07/19 06:31:00;;;;;;;;;;;;;;;-144.99;100.00;52325.81;5040909;28;19940;-67
2023/07/19 06:33:29;;;;;;;;;;;;;;;-144.99;100.00;52329.88;5035822;28;19964;-69
2023/07/19 06:35:55;;;;;;;;;;;;;;;-144.99;100.00;52329.88;5042898;28;19994;-69
2023/07/19 06:38:23;;;;;;;;;;;;;;;-144.99;100.00;52338.03;5044780;28;20539;-69
2023/07/19 06:40:49;;;;;;;;;;;;;;;-144.99;100.00;52313.56;5041482;28;19924;-69
2023/07/19 06:43:16;;;;;;;;;;;;;;;-144.99;100.00;52333.94;5045644;28;20003;-69
2023/07/19 06:45:43;;;;;;;;;;;;;;;-144.99;100.00;52317.66;5044466;28;19936;-69
2023/07/19 06:48:09;;;;;;;;;;;;;;;-144.99;100.00;52350.25;5036085;28;20286;-68
2023/07/19 06:50:37;;;;;;;;;;;;;;;-144.99;100.00;52305.41;5041071;28;19939;-68
2023/07/19 06:53:04;;;;;;;;;;;;;;;-144.99;100.00;52315.59;4695786;28;10000213;-68
2023/07/19 06:55:31;;;;;;;;;;;;;;;-144.99;100.00;52313.56;5044819;28;19925;-69
2023/07/19 06:57:57;;;;;;;;;;;;;;;-144.99;100.00;52321.72;5044629;28;20638;-67
2023/07/19 07:00:24;;;;;;;;;;;;;;;-144.99;100.00;52299.31;5044605;28;19949;-69
2023/07/19 07:02:50;;;;;;;;;;;;;;;-144.99;100.00;52319.69;5042818;28;19925;-69
2023/07/19 07:05:17;;;;;;;;;;;;;;;-144.99;100.00;52297.25;5043987;28;20673;-69
2023/07/19 07:07:45;;;;;;;;;;;;;;;-144.99;100.00;52293.19;5042460;28;19940;-68
2023/07/19 07:10:12;;;;;;;;;;;;;;;-144.99;100.00;52321.72;5042831;28;19935;-68
2023/07/19 07:12:38;;;;;;;;;;;;;;;-144.99;100.00;52301.34;5035039;28;19952;-68
2023/07/19 07:15:06;;;;;;;;;;;;;;;-144.99;100.00;52331.91;5040715;28;20104;-68
2023/07/19 07:17:32;;;;;;;;;;;;;;;-144.99;100.00;52313.56;5044909;28;19970;-68
2023/07/19 07:19:59;;;;;;;;;;;;;;;-144.99;100.00;52325.81;5046533;28;19925;-68
2023/07/19 07:22:26;;;;;;;;;;;;;;;-144.99;100.00;52313.56;5047100;28;19925;-69
2023/07/19 07:24:54;;;;;;;;;;;;;;;-144.99;100.00;52305.41;5047769;28;19939;-68
2023/07/19 07:27:20;;;;;;;;;;;;;;;-144.99;100.00;52342.09;5044965;28;20144;-68
2023/07/19 07:29:47;;;;;;;;;;;;;;;-144.99;100.00;52280.97;5037316;28;19932;-69
2023/07/19 07:32:13;;;;;;;;;;;;;;;-144.99;100.00;52317.66;5047430;28;19935;-68
2023/07/19 07:34:40;;;;;;;;;;;;;;;-144.99;100.00;52289.13;5048086;28;19936;-68
2023/07/19 07:37:07;;;;;;;;;;;;;;;-144.99;100.00;52342.09;5047803;28;19928;-69
2023/07/19 07:39:34;;;;;;;;;;;;;;;-144.99;100.00;52352.28;5045178;28;19929;-69
2023/07/19 07:42:02;;;;;;;;;;;;;;;-144.99;100.00;52325.81;5046231;28;19924;-68
2023/07/19 07:44:29;;;;;;;;;;;;;;;-144.99;100.00;52323.75;5034521;28;20020;-68
2023/07/19 07:46:56;;;;;;;;;;;;;;;-144.99;100.00;52317.66;5040602;28;19936;-69
2023/07/19 07:49:22;;;;;;;;;;;;;;;-144.99;100.00;52350.25;5037686;28;19929;-67
2023/07/19 07:51:49;;;;;;;;;;;;;;;-144.99;100.00;52333.94;5039828;28;20381;-69
2023/07/19 07:54:15;;;;;;;;;;;;;;;-144.99;100.00;52309.50;5041975;28;19929;-68
2023/07/19 07:56:42;;;;;;;;;;;;;;;-144.99;100.00;52297.25;5046907;28;19939;-68
2023/07/19 07:59:10;;;;;;;;;;;;;;;-144.99;100.00;52301.34;5037136;28;20164;-68
2023/07/19 08:01:37;;;;;;;;;;;;;;;-144.99;100.00;52305.41;5036728;28;20043;-67
2023/07/19 08:04:06;;;;;;;;;;;;;;;-144.99;100.00;52293.19;5043981;28;19924;-69
2023/07/19 08:06:33;;;;;;;;;;;;;;;-144.99;100.00;52329.88;5040468;28;19933;-69
2023/07/19 08:08:59;;;;;;;;;;;;;;;-144.99;100.00;52344.16;5044118;28;19929;-70
2023/07/19 08:11:26;;;;;;;;;;;;;;;-144.99;100.00;52283.00;5042867;28;19925;-68
2023/07/19 08:13:53;;;;;;;;;;;;;;;-144.99;100.00;52331.91;5045641;28;20033;-68
2023/07/19 08:16:21;;;;;;;;;;;;;;;-144.99;100.00;52338.03;5031843;28;20298;-68
2023/07/19 08:18:48;;;;;;;;;;;;;;;-144.99;100.00;52299.31;5035684;28;20031;-68
2023/07/19 08:21:14;;;;;;;;;;;;;;;-144.99;100.00;52342.09;5043574;28;19932;-68
2023/07/19 08:23:41;;;;;;;;;;;;;;;-144.99;100.00;52321.72;5045912;28;19932;-67
2023/07/19 08:26:08;;;;;;;;;;;;;;;-144.99;100.00;52278.91;5039498;28;20108;-69
2023/07/19 08:28:34;;;;;;;;;;;;;;;-144.99;100.00;52299.31;5044320;28;19932;-68
2023/07/19 08:31:01;;;;;;;;;;;;;;;-144.99;100.00;52305.41;5037352;28;19925;-68
2023/07/19 08:33:29;;;;;;;;;;;;;;;-144.99;99.73;52317.66;5043677;28;19925;-69
2023/07/19 08:35:56;;;;;;;;;;;;;;;-144.99;99.57;52342.09;5047788;28;19924;-70
2023/07/19 08:38:22;;;;;;;;;;;;;;;-144.99;99.40;52325.81;5044664;28;19929;-69
2023/07/19 08:40:54;;;;;;;;;;;;;;;-144.99;98.58;52317.66;5042560;28;19969;-69
2023/07/19 08:43:21;;;;;;;;;;;;;;;-144.99;98.09;52325.81;5043097;28;19936;-68
2023/07/19 08:45:48;;;;;;;;;;;;;;;-144.99;97.22;52260.56;5045547;28;20354;-69
2023/07/19 08:48:15;;;;;;;;;;;;;;;-144.99;97.63;52258.53;5046325;28;19925;-69
2023/07/19 08:50:43;;;;;;;;;;;;;;;-144.99;97.22;52285.03;5039487;28;20028;-68
2023/07/19 08:53:10;;;;;;;;;;;;;;;-144.99;96.08;52264.66;5043812;28;19929;-69
2023/07/19 08:55:36;;;;;;;;;;;;;;;-144.99;94.52;52305.41;5038197;28;19983;-69
2023/07/19 08:58:03;;;;;;;;;;;;;;;-144.99;94.59;52256.50;5046489;28;20091;-68
2023/07/19 09:00:33;;;;;;;;;;;;;;;-144.99;94.11;52252.44;5044892;28;19987;-68
2023/07/19 09:03:00;;;;;;;;;;;;;;;-144.99;93.88;52264.66;5045511;28;20437;-68
2023/07/19 09:05:28;;;;;;;;;;;;;;;-144.99;93.37;52240.19;5046116;28;19933;-68
2023/07/19 09:07:59;;;;;;;;;;;;;;;-144.99;91.49;52227.97;5038578;28;19925;-68
2023/07/19 09:10:26;;;;;;;;;;;;;;;-144.99;89.15;52232.03;5037451;28;20424;-69
2023/07/19 09:12:53;;;;;;;;;;;;;;;-144.99;88.41;52207.59;5044097;28;19936;-69
2023/07/19 09:15:20;;;;;;;;;;;;;;;-144.99;86.31;52234.09;5037285;28;20412;-69
2023/07/19 09:17:47;;;;;;;;;;;;;;;-144.99;86.01;52223.88;5040648;28;20392;-70
2023/07/19 09:20:15;;;;;;;;;;;;;;;-144.99;83.48;52181.09;5035550;28;19929;-69
2023/07/19 09:22:42;;;;;;;;;;;;;;;-144.99;82.21;52193.31;5038347;28;20312;-68
2023/07/19 09:25:11;;;;;;;;;;;;;;;-144.99;80.02;52207.59;5039198;28;19932;-71
2023/07/19 09:27:38;;;;;;;;;;;;;;;-144.99;75.81;52179.06;5046075;28;19986;-70
2023/07/19 09:30:09;;;;;;;;;;;;;;;-144.99;75.77;52211.66;5043609;28;20032;-70
2023/07/19 09:32:36;;;;;;;;;;;;;;;-144.99;76.18;52166.81;5036300;28;19945;-70
2023/07/19 09:35:04;;;;;;;;;;;;;;;-144.99;76.96;52193.31;5039990;28;19933;-70
2023/07/19 09:37:31;;;;;;;;;;;;;;;-144.99;76.58;52189.25;5035199;28;19925;-69
2023/07/19 09:39:59;;;;;;;;;;;;;;;-144.99;76.91;52205.53;5033004;28;19999;-70
2023/07/19 09:42:28;;;;;;;;;;;;;;;-144.99;75.49;52211.66;5038890;28;19936;-70
2023/07/19 09:44:54;;;;;;;;;;;;;;;-144.99;74.84;52170.91;5042431;28;19948;-69
2023/07/19 09:47:23;;;;;;;;;;;;;;;-144.99;75.21;52207.59;5042601;28;19952;-69
2023/07/19 09:49:50;;;;;;;;;;;;;;;-144.99;75.04;52211.66;5038442;28;20063;-68
2023/07/19 09:52:19;;;;;;;;;;;;;;;-144.99;75.49;52166.81;5043325;28;20463;-69
2023/07/19 09:54:46;;;;;;;;;;;;;;;-144.99;74.15;52166.81;5045109;28;19929;-69
2023/07/19 09:57:13;;;;;;;;;;;;;;;-144.99;73.59;52154.59;5047125;28;19939;-71
2023/07/19 09:59:44;;;;;;;;;;;;;;;-144.99;72.17;52166.81;5045924;28;19983;-71
2023/07/19 10:02:12;;;;;;;;;;;;;;;-144.99;72.26;52138.28;5042789;28;19929;-71
2023/07/19 10:04:39;;;;;;;;;;;;;;;-144.99;72.06;52154.59;5045561;28;19924;-70
2023/07/19 10:07:09;;;;;;;;;;;;;;;-144.99;71.23;52109.75;5048050;28;19929;-70
2023/07/19 10:09:37;;;;;;;;;;;;;;;-144.99;70.21;52134.22;4685328;28;10000582;-71
2023/07/19 10:12:07;;;;;;;;;;;;;;;-144.99;69.78;52050.66;5038421;28;20027;-71
2023/07/19 10:14:34;;;;;;;;;;;;;;;-144.99;68.74;52140.31;5034853;28;20355;-69
2023/07/19 10:17:04;;;;;;;;;;;;;;;-144.99;69.68;52158.66;5035367;28;19973;-70
2023/07/19 10:19:31;;;;;;;;;;;;;;;-144.99;70.39;52166.81;5044294;28;20022;-70
2023/07/19 10:22:04;;;;;;;;;;;;;;;-144.99;69.25;52134.22;5039812;28;19932;-71
2023/07/19 10:24:31;;;;;;;;;;;;;;;-144.99;69.55;52162.75;5045155;28;20327;-69
2023/07/19 10:27:00;;;;;;;;;;;;;;;-144.99;69.50;52183.13;5046196;28;19928;-70
2023/07/19 10:29:27;;;;;;;;;;;;;;;-144.99;70.14;52170.91;5035970;28;19933;-70
2023/07/19 10:31:53;;;;;;;;;;;;;;;-144.99;70.87;52191.28;5044273;28;19924;-69
2023/07/19 10:34:30;;;;;;;;;;;;;;;-144.99;71.55;52195.34;5042327;28;19936;-70
2023/07/19 10:37:01;;;;;;;;;;;;;;;-144.99;71.57;52174.97;5041049;28;20057;-68
2023/07/19 10:39:28;;;;;;;;;;;;;;;-144.99;70.94;52219.81;5037580;28;19960;-70
2023/07/19 10:41:54;;;;;;;;;;;;;;;-144.99;71.48;52207.59;5043420;28;20362;-68
2023/07/19 10:44:21;;;;;;;;;;;;;;;-144.99;70.80;52199.44;5043728;28;19940;-68
2023/07/19 10:46:48;;;;;;;;;;;;;;;-144.99;71.59;52166.81;5035841;28;19983;-68
2023/07/19 10:49:15;;;;;;;;;;;;;;;-144.99;71.20;52154.59;5039940;28;19936;-70
2023/07/19 10:51:53;;;;;;;;;;;;;;;-144.99;70.87;52158.66;5044774;28;19981;-68
2023/07/19 10:54:19;;;;;;;;;;;;;;;-144.99;69.78;52211.66;5047335;28;20390;-69
2023/07/19 10:56:47;;;;;;;;;;;;;;;-144.99;69.42;52183.13;5041790;28;19925;-70
2023/07/19 10:59:14;;;;;;;;;;;;;;;-144.99;70.31;52195.34;5046977;28;20358;-70
2023/07/19 11:01:41;;;;;;;;;;;;;;;-144.99;71.04;52179.06;5043709;28;19929;-69
2023/07/19 11:04:07;;;;;;;;;;;;;;;-144.99;70.92;52162.75;5047941;28;20258;-69
2023/07/19 11:06:34;;;;;;;;;;;;;;;-144.99;71.07;52146.44;5047617;28;19936;-70
2023/07/19 11:09:05;;;;;;;;;;;;;;;-144.99;70.15;52138.28;5044787;28;20042;-70
2023/07/19 11:11:34;;;;;;;;;;;;;;;-144.99;70.17;52174.97;5041054;28;19928;-70
2023/07/19 11:14:01;;;;;;;;;;;;;;;-144.99;70.31;52162.75;5047799;28;19939;-70
2023/07/19 11:16:29;;;;;;;;;;;;;;;-144.99;70.03;52158.66;5043650;28;19956;-70
2023/07/19 11:18:56;;;;;;;;;;;;;;;-144.99;69.90;52095.50;5046781;28;19932;-71
2023/07/19 11:21:26;;;;;;;;;;;;;;;-144.99;67.97;52079.19;5044953;28;19936;-69
2023/07/19 11:23:53;;;;;;;;;;;;;;;-144.99;68.27;52069.00;5044825;28;20056;-69
2023/07/19 11:26:21;;;;;;;;;;;;;;;-144.99;67.29;52093.44;5041418;28;19948;-69
2023/07/19 11:28:48;;;;;;;;;;;;;;;-144.99;66.75;52119.94;5038304;28;19929;-69
2023/07/19 11:31:28;;;;;;;;;;;;;;;-144.99;66.59;52124.03;5041326;28;19929;-70
2023/07/19 11:33:57;;;;;;;;;;;;;;;-144.99;66.38;52121.97;5037524;28;20332;-69
2023/07/19 11:36:24;;;;;;;;;;;;;;;-144.99;66.08;52140.31;5043418;28;20159;-71
2023/07/19 11:38:51;;;;;;;;;;;;;;;-144.99;66.71;52174.97;5047541;28;20024;-69
2023/07/19 11:41:17;;;;;;;;;;;;;;;-144.99;67.32;52199.44;5045183;28;20486;-71
2023/07/19 11:43:46;;;;;;;;;;;;;;;-144.99;68.09;52230.00;5047006;28;20241;-70
2023/07/19 11:46:13;;;;;;;;;;;;;;;-144.99;69.00;52195.34;5047291;28;20191;-69
2023/07/19 11:48:40;;;;;;;;;;;;;;;-144.99;70.09;52203.50;5044186;28;20302;-69
2023/07/19 11:51:07;;;;;;;;;;;;;;;-144.99;70.71;52248.34;5045363;28;19935;-70
2023/07/19 11:53:33;;;;;;;;;;;;;;;-144.99;71.10;52215.75;5042031;28;20414;-69
2023/07/19 11:56:00;;;;;;;;;;;;;;;-144.99;71.78;52197.41;5043629;28;19933;-70
2023/07/19 11:58:26;;;;;;;;;;;;;;;-144.99;72.43;52160.72;5043207;28;19945;-69
2023/07/19 12:00:55;;;;;;;;;;;;;;;-144.99;72.42;52227.97;5038688;28;20381;-69
2023/07/19 12:03:22;;;;;;;;;;;;;;;-144.99;72.60;52240.19;5042755;28;20301;-69
2023/07/19 12:05:48;;;;;;;;;;;;;;;-144.99;72.15;52219.81;5044614;28;20392;-71
2023/07/19 12:08:16;;;;;;;;;;;;;;;-144.99;72.27;52162.75;5047551;28;19928;-70
2023/07/19 12:10:42;;;;;;;;;;;;;;;-144.99;71.76;52191.28;5044761;28;19933;-69
2023/07/19 12:13:09;;;;;;;;;;;;;;;-144.99;71.47;52199.44;5042175;28;19929;-69
2023/07/19 12:15:36;;;;;;;;;;;;;;;-144.99;70.70;52183.13;5046317;28;19936;-68
2023/07/19 12:18:04;;;;;;;;;;;;;;;-144.99;70.40;52146.44;5034901;28;19933;-70
2023/07/19 12:20:31;;;;;;;;;;;;;;;-144.99;70.35;52179.06;5038235;28;20277;-70